aviador You're here:

KOAK Decoded Metar

OAKLAND in CA, USA
Report Time2017-08-18 09:53:00
UTC Time2017-08-18 10:49:27
Flight Rules mvfr MVFR
Wind300° at 07 kt
W.Decomp.*RWY 29: 7.0 kt HW 0.7 kt LCW
RWY 27: 6.8 kt HW 1.7 kt RCW
RWY 33: 4.9 kt HW 5 kt LCW
W.Rank300° ranks 1
Current wind is below 300° avg. (8.6)
Visibility9999 m
Phenomena:N/A
Clouds:Overcast 011 Hf
Expected CloudBase > 800 ft AGL from Temp-Dew spread
Ceiling1,100 ft
Temp16°C (ISA +1)
Dew Point14°C (88% RH)
AAT14.7°C
QNH1016 hPa
Density Alt335 ft
Elevation85 ft
Report Wrong Elevation
Raw Report
METAR KOAK 180953Z 30007KT 10SM OVC011 16/14 A2999 RMK AO2 SLP156 T01560144=

Extra information for KOAK:More info

Metar Taf Metar & Taf Last 4 Metars F.Rules Stats Wind Profile Meteogram Temp Stats Airport Information Weather charts Add Link Nearby VenuesMetar ALERT Operation Metar Decoded Social comments

AIRNAV info for KOAK